sensor_id;sensor_type;location;lat;lon;timestamp;pressure;altitude;pressure_sealevel;temperature;humidity
74708;BME280;63360;50.104;8.074;2023-03-02T00:00:18;97537.50;;;-1.61;78.30
74708;BME280;63360;50.104;8.074;2023-03-02T00:02:44;97535.59;;;-1.66;78.70
74708;BME280;63360;50.104;8.074;2023-03-02T00:05:11;97533.47;;;-1.69;79.80
74708;BME280;63360;50.104;8.074;2023-03-02T00:07:39;97551.88;;;-1.67;80.41
74708;BME280;63360;50.104;8.074;2023-03-02T00:10:06;97551.88;;;-1.67;79.67
74708;BME280;63360;50.104;8.074;2023-03-02T00:12:33;97532.69;;;-1.69;79.16
74708;BME280;63360;50.104;8.074;2023-03-02T00:14:59;97547.81;;;-1.68;79.05
74708;BME280;63360;50.104;8.074;2023-03-02T00:17:26;97542.34;;;-1.71;79.57
74708;BME280;63360;50.104;8.074;2023-03-02T00:19:56;97533.84;;;-1.65;80.58
74708;BME280;63360;50.104;8.074;2023-03-02T00:22:48;97524.50;;;-1.71;80.45
74708;BME280;63360;50.104;8.074;2023-03-02T00:25:15;97533.47;;;-1.69;80.68
74708;BME280;63360;50.104;8.074;2023-03-02T00:27:42;97539.84;;;-1.60;80.62
74708;BME280;63360;50.104;8.074;2023-03-02T00:30:10;97526.94;;;-1.65;81.08
74708;BME280;63360;50.104;8.074;2023-03-02T00:32:37;97527.16;;;-1.66;80.54
74708;BME280;63360;50.104;8.074;2023-03-02T00:35:04;97534.25;;;-1.68;79.96
74708;BME280;63360;50.104;8.074;2023-03-02T00:37:31;97540.09;;;-1.79;80.59
74708;BME280;63360;50.104;8.074;2023-03-02T00:39:57;97520.69;;;-1.80;81.12
74708;BME280;63360;50.104;8.074;2023-03-02T00:42:24;97522.56;;;-1.88;80.53
74708;BME280;63360;50.104;8.074;2023-03-02T00:44:51;97535.44;;;-1.83;82.19
74708;BME280;63360;50.104;8.074;2023-03-02T00:47:18;97537.84;;;-1.88;81.51
74708;BME280;63360;50.104;8.074;2023-03-02T00:49:45;97516.66;;;-2.00;82.81
74708;BME280;63360;50.104;8.074;2023-03-02T00:52:15;97525.34;;;-1.89;82.13
74708;BME280;63360;50.104;8.074;2023-03-02T00:54:42;97524.84;;;-1.98;82.65
74708;BME280;63360;50.104;8.074;2023-03-02T00:57:08;97529.28;;;-1.93;82.29
74708;BME280;63360;50.104;8.074;2023-03-02T00:59:36;97523.28;;;-1.99;82.11
74708;BME280;63360;50.104;8.074;2023-03-02T01:02:03;97512.06;;;-2.09;83.16
74708;BME280;63360;50.104;8.074;2023-03-02T01:07:04;97510.53;;;-2.10;83.68
74708;BME280;63360;50.104;8.074;2023-03-02T01:09:31;97507.19;;;-2.11;83.86
74708;BME280;63360;50.104;8.074;2023-03-02T01:11:58;97513.81;;;-2.10;83.53
74708;BME280;63360;50.104;8.074;2023-03-02T01:14:25;97491.72;;;-2.27;84.73
74708;BME280;63360;50.104;8.074;2023-03-02T01:16:51;97500.31;;;-2.10;84.76
74708;BME280;63360;50.104;8.074;2023-03-02T01:19:18;97491.63;;;-2.21;83.59
74708;BME280;63360;50.104;8.074;2023-03-02T01:21:44;97501.19;;;-2.16;83.40
74708;BME280;63360;50.104;8.074;2023-03-02T01:24:11;97484.63;;;-2.25;85.30
74708;BME280;63360;50.104;8.074;2023-03-02T01:26:37;97495.56;;;-2.07;85.15
74708;BME280;63360;50.104;8.074;2023-03-02T01:29:04;97481.09;;;-2.24;84.19
74708;BME280;63360;50.104;8.074;2023-03-02T01:31:30;97483.84;;;-2.26;85.23
74708;BME280;63360;50.104;8.074;2023-03-02T01:33:57;97482.06;;;-2.25;84.57
74708;BME280;63360;50.104;8.074;2023-03-02T01:36:23;97477.69;;;-2.36;84.19
74708;BME280;63360;50.104;8.074;2023-03-02T01:38:50;97485.28;;;-2.30;84.33
74708;BME280;63360;50.104;8.074;2023-03-02T01:41:16;97491.22;;;-2.36;84.96
74708;BME280;63360;50.104;8.074;2023-03-02T01:43:43;97498.44;;;-2.33;86.05
74708;BME280;63360;50.104;8.074;2023-03-02T01:46:17;97484.13;;;-2.34;86.21
74708;BME280;63360;50.104;8.074;2023-03-02T01:48:49;97486.38;;;-2.26;86.19
74708;BME280;63360;50.104;8.074;2023-03-02T01:51:20;97493.91;;;-2.31;85.95
74708;BME280;63360;50.104;8.074;2023-03-02T01:53:51;97478.00;;;-2.45;86.48
74708;BME280;63360;50.104;8.074;2023-03-02T01:56:27;97488.84;;;-2.49;85.48
74708;BME280;63360;50.104;8.074;2023-03-02T01:58:59;97496.19;;;-2.41;85.14
74708;BME280;63360;50.104;8.074;2023-03-02T02:01:29;97485.72;;;-2.51;86.41
74708;BME280;63360;50.104;8.074;2023-03-02T02:03:57;97476.31;;;-2.51;86.28
74708;BME280;63360;50.104;8.074;2023-03-02T02:06:27;97488.78;;;-2.42;86.73
74708;BME280;63360;50.104;8.074;2023-03-02T02:08:57;97482.25;;;-2.38;86.88
74708;BME280;63360;50.104;8.074;2023-03-02T02:11:25;97482.72;;;-2.30;86.18
74708;BME280;63360;50.104;8.074;2023-03-02T02:13:56;97471.38;;;-2.46;85.87
74708;BME280;63360;50.104;8.074;2023-03-02T02:16:24;97475.38;;;-2.38;86.06
74708;BME280;63360;50.104;8.074;2023-03-02T02:18:51;97461.50;;;-2.42;84.57
74708;BME280;63360;50.104;8.074;2023-03-02T02:21:18;97470.72;;;-2.41;84.24
74708;BME280;63360;50.104;8.074;2023-03-02T02:26:32;97459.53;;;-2.40;83.85
74708;BME280;63360;50.104;8.074;2023-03-02T02:29:08;97459.47;;;-2.52;84.24
74708;BME280;63360;50.104;8.074;2023-03-02T02:31:43;97457.41;;;-2.43;83.84
74708;BME280;63360;50.104;8.074;2023-03-02T02:34:25;97469.22;;;-2.30;83.31
74708;BME280;63360;50.104;8.074;2023-03-02T02:36:58;97477.63;;;-2.30;83.53
74708;BME280;63360;50.104;8.074;2023-03-02T02:39:30;97455.22;;;-2.39;82.85
74708;BME280;63360;50.104;8.074;2023-03-02T02:42:00;97461.38;;;-2.47;84.64
74708;BME280;63360;50.104;8.074;2023-03-02T02:44:28;97467.59;;;-2.43;85.19
74708;BME280;63360;50.104;8.074;2023-03-02T02:46:55;97462.09;;;-2.40;84.87
74708;BME280;63360;50.104;8.074;2023-03-02T02:49:33;97465.75;;;-2.36;84.05
74708;BME280;63360;50.104;8.074;2023-03-02T02:52:02;97462.28;;;-2.41;85.39
74708;BME280;63360;50.104;8.074;2023-03-02T02:54:30;97442.88;;;-2.54;85.17
74708;BME280;63360;50.104;8.074;2023-03-02T02:57:00;97441.59;;;-2.45;84.20
74708;BME280;63360;50.104;8.074;2023-03-02T02:59:32;97456.13;;;-2.34;83.89
74708;BME280;63360;50.104;8.074;2023-03-02T03:02:00;97452.47;;;-2.38;83.57
74708;BME280;63360;50.104;8.074;2023-03-02T03:04:29;97447.78;;;-2.41;83.45
74708;BME280;63360;50.104;8.074;2023-03-02T03:09:23;97452.72;;;-2.28;83.81
74708;BME280;63360;50.104;8.074;2023-03-02T03:12:02;97450.59;;;-2.31;83.45
74708;BME280;63360;50.104;8.074;2023-03-02T03:14:33;97439.38;;;-2.41;83.87
74708;BME280;63360;50.104;8.074;2023-03-02T03:17:00;97448.28;;;-2.32;83.57
74708;BME280;63360;50.104;8.074;2023-03-02T03:19:29;97430.63;;;-2.46;83.51
74708;BME280;63360;50.104;8.074;2023-03-02T03:22:00;97445.47;;;-2.42;84.99
74708;BME280;63360;50.104;8.074;2023-03-02T03:24:29;97429.28;;;-2.48;84.23
74708;BME280;63360;50.104;8.074;2023-03-02T03:26:56;97432.50;;;-2.41;86.39
74708;BME280;63360;50.104;8.074;2023-03-02T03:29:25;97436.41;;;-2.38;85.43
74708;BME280;63360;50.104;8.074;2023-03-02T03:31:54;97420.84;;;-2.49;85.41
74708;BME280;63360;50.104;8.074;2023-03-02T03:34:22;97446.22;;;-2.42;86.33
74708;BME280;63360;50.104;8.074;2023-03-02T03:36:49;97418.72;;;-2.52;85.44
74708;BME280;63360;50.104;8.074;2023-03-02T03:39:17;97428.28;;;-2.47;84.26
74708;BME280;63360;50.104;8.074;2023-03-02T03:41:43;97424.06;;;-2.53;84.29
74708;BME280;63360;50.104;8.074;2023-03-02T03:44:11;97426.94;;;-2.50;83.98
74708;BME280;63360;50.104;8.074;2023-03-02T03:46:37;97429.31;;;-2.36;83.36
74708;BME280;63360;50.104;8.074;2023-03-02T03:49:04;97435.72;;;-2.46;83.91
74708;BME280;63360;50.104;8.074;2023-03-02T03:51:31;97440.03;;;-2.46;83.60
74708;BME280;63360;50.104;8.074;2023-03-02T03:54:05;97422.34;;;-2.59;85.48
74708;BME280;63360;50.104;8.074;2023-03-02T03:56:40;97435.88;;;-2.59;86.19
74708;BME280;63360;50.104;8.074;2023-03-02T03:59:08;97443.28;;;-2.57;86.10
74708;BME280;63360;50.104;8.074;2023-03-02T04:04:06;97433.75;;;-2.62;86.08
74708;BME280;63360;50.104;8.074;2023-03-02T04:06:33;97440.06;;;-2.64;85.73
74708;BME280;63360;50.104;8.074;2023-03-02T04:09:00;97427.38;;;-2.71;86.89
74708;BME280;63360;50.104;8.074;2023-03-02T04:11:31;97443.72;;;-2.60;87.11
74708;BME280;63360;50.104;8.074;2023-03-02T04:13:58;97438.28;;;-2.64;85.77
74708;BME280;63360;50.104;8.074;2023-03-02T04:16:25;97440.59;;;-2.62;86.44
74708;BME280;63360;50.104;8.074;2023-03-02T04:18:51;97438.06;;;-2.62;86.16
74708;BME280;63360;50.104;8.074;2023-03-02T04:21:18;97445.75;;;-2.51;84.91
74708;BME280;63360;50.104;8.074;2023-03-02T04:23:45;97443.00;;;-2.49;84.98
74708;BME280;63360;50.104;8.074;2023-03-02T04:26:11;97441.72;;;-2.40;84.32
74708;BME280;63360;50.104;8.074;2023-03-02T04:28:38;97448.97;;;-2.25;82.91
74708;BME280;63360;50.104;8.074;2023-03-02T04:31:04;97461.28;;;-2.22;82.65
74708;BME280;63360;50.104;8.074;2023-03-02T04:33:31;97465.25;;;-2.26;82.27
74708;BME280;63360;50.104;8.074;2023-03-02T04:35:58;97469.00;;;-2.29;82.33
74708;BME280;63360;50.104;8.074;2023-03-02T04:38:24;97456.09;;;-2.46;83.20
74708;BME280;63360;50.104;8.074;2023-03-02T04:40:56;97472.06;;;-2.38;82.68
74708;BME280;63360;50.104;8.074;2023-03-02T04:43:23;97470.06;;;-2.36;82.57
74708;BME280;63360;50.104;8.074;2023-03-02T04:45:52;97459.91;;;-2.55;83.70
74708;BME280;63360;50.104;8.074;2023-03-02T04:48:20;97466.91;;;-2.50;84.24
74708;BME280;63360;50.104;8.074;2023-03-02T04:50:47;97445.75;;;-2.69;84.64
74708;BME280;63360;50.104;8.074;2023-03-02T04:53:14;97468.88;;;-2.52;84.17
74708;BME280;63360;50.104;8.074;2023-03-02T04:55:40;97464.66;;;-2.58;83.42
74708;BME280;63360;50.104;8.074;2023-03-02T04:58:07;97471.38;;;-2.64;83.54
74708;BME280;63360;50.104;8.074;2023-03-02T05:00:34;97459.94;;;-2.73;83.48
74708;BME280;63360;50.104;8.074;2023-03-02T05:03:01;97454.69;;;-2.78;83.77
74708;BME280;63360;50.104;8.074;2023-03-02T05:05:30;97453.50;;;-2.75;83.64
74708;BME280;63360;50.104;8.074;2023-03-02T05:07:57;97468.84;;;-2.64;84.01
74708;BME280;63360;50.104;8.074;2023-03-02T05:10:27;97450.16;;;-2.76;84.00
74708;BME280;63360;50.104;8.074;2023-03-02T05:12:54;97461.56;;;-2.78;84.05
74708;BME280;63360;50.104;8.074;2023-03-02T05:15:25;97449.47;;;-2.83;84.05
74708;BME280;63360;50.104;8.074;2023-03-02T05:17:52;97449.25;;;-2.81;84.35
74708;BME280;63360;50.104;8.074;2023-03-02T05:20:19;97457.59;;;-2.74;84.83
74708;BME280;63360;50.104;8.074;2023-03-02T05:22:46;97449.97;;;-2.74;84.39
74708;BME280;63360;50.104;8.074;2023-03-02T05:25:13;97449.66;;;-2.84;84.85
74708;BME280;63360;50.104;8.074;2023-03-02T05:27:40;97447.06;;;-2.78;84.52
74708;BME280;63360;50.104;8.074;2023-03-02T05:30:07;97442.91;;;-2.90;84.74
74708;BME280;63360;50.104;8.074;2023-03-02T05:32:33;97449.94;;;-2.92;84.64
74708;BME280;63360;50.104;8.074;2023-03-02T05:35:00;97439.28;;;-3.01;85.37
74708;BME280;63360;50.104;8.074;2023-03-02T05:37:26;97429.66;;;-2.99;85.26
74708;BME280;63360;50.104;8.074;2023-03-02T05:39:52;97434.19;;;-3.01;86.18
74708;BME280;63360;50.104;8.074;2023-03-02T05:42:19;97458.59;;;-2.93;85.21
74708;BME280;63360;50.104;8.074;2023-03-02T05:44:45;97456.75;;;-3.04;86.09
74708;BME280;63360;50.104;8.074;2023-03-02T05:47:11;97446.47;;;-3.16;86.50
74708;BME280;63360;50.104;8.074;2023-03-02T05:49:38;97444.00;;;-3.23;87.40
74708;BME280;63360;50.104;8.074;2023-03-02T05:52:04;97459.00;;;-3.15;86.99
74708;BME280;63360;50.104;8.074;2023-03-02T05:54:31;97441.50;;;-3.29;87.71
74708;BME280;63360;50.104;8.074;2023-03-02T05:56:57;97455.53;;;-3.20;87.44
74708;BME280;63360;50.104;8.074;2023-03-02T05:59:23;97450.84;;;-3.23;88.76
74708;BME280;63360;50.104;8.074;2023-03-02T06:01:50;97466.63;;;-3.15;88.88
74708;BME280;63360;50.104;8.074;2023-03-02T06:04:20;97466.00;;;-3.10;87.42
74708;BME280;63360;50.104;8.074;2023-03-02T06:06:46;97463.06;;;-3.14;86.75
74708;BME280;63360;50.104;8.074;2023-03-02T06:09:12;97469.88;;;-3.08;87.06
74708;BME280;63360;50.104;8.074;2023-03-02T06:11:39;97469.09;;;-3.08;86.65
74708;BME280;63360;50.104;8.074;2023-03-02T06:14:05;97462.47;;;-3.09;86.83
74708;BME280;63360;50.104;8.074;2023-03-02T06:16:31;97470.59;;;-3.00;86.02
74708;BME280;63360;50.104;8.074;2023-03-02T06:18:59;97476.25;;;-2.98;85.16
74708;BME280;63360;50.104;8.074;2023-03-02T06:21:25;97466.97;;;-3.11;85.25
74708;BME280;63360;50.104;8.074;2023-03-02T06:23:52;97462.31;;;-3.14;86.20
74708;BME280;63360;50.104;8.074;2023-03-02T06:26:18;97468.91;;;-3.07;85.62
74708;BME280;63360;50.104;8.074;2023-03-02T06:28:44;97463.66;;;-3.12;85.41
74708;BME280;63360;50.104;8.074;2023-03-02T06:31:18;97472.66;;;-3.09;85.41
74708;BME280;63360;50.104;8.074;2023-03-02T06:33:45;97472.50;;;-3.14;86.91
74708;BME280;63360;50.104;8.074;2023-03-02T06:36:11;97489.19;;;-3.00;87.04
74708;BME280;63360;50.104;8.074;2023-03-02T06:38:38;97481.47;;;-3.12;86.70
74708;BME280;63360;50.104;8.074;2023-03-02T06:41:04;97494.91;;;-3.04;86.50
74708;BME280;63360;50.104;8.074;2023-03-02T06:43:31;97487.69;;;-3.08;86.27
74708;BME280;63360;50.104;8.074;2023-03-02T06:45:57;97479.84;;;-3.06;85.76
74708;BME280;63360;50.104;8.074;2023-03-02T06:48:25;97478.88;;;-2.87;84.86
74708;BME280;63360;50.104;8.074;2023-03-02T06:50:52;97490.38;;;-2.84;84.86
74708;BME280;63360;50.104;8.074;2023-03-02T06:53:18;97488.56;;;-2.77;85.43
74708;BME280;63360;50.104;8.074;2023-03-02T06:55:48;97473.06;;;-2.76;84.92
74708;BME280;63360;50.104;8.074;2023-03-02T06:58:15;97474.34;;;-2.67;83.77
74708;BME280;63360;50.104;8.074;2023-03-02T07:00:41;97484.81;;;-2.57;83.97
74708;BME280;63360;50.104;8.074;2023-03-02T07:03:08;97477.16;;;-2.57;84.46
74708;BME280;63360;50.104;8.074;2023-03-02T07:05:34;97480.78;;;-2.46;83.75
74708;BME280;63360;50.104;8.074;2023-03-02T07:08:03;97485.78;;;-2.39;84.22
74708;BME280;63360;50.104;8.074;2023-03-02T07:10:29;97474.19;;;-2.35;83.22
74708;BME280;63360;50.104;8.074;2023-03-02T07:12:56;97480.31;;;-2.25;83.71
74708;BME280;63360;50.104;8.074;2023-03-02T07:15:22;97482.00;;;-2.19;83.34
74708;BME280;63360;50.104;8.074;2023-03-02T07:17:48;97477.94;;;-2.08;82.56
74708;BME280;63360;50.104;8.074;2023-03-02T07:20:17;97466.75;;;-2.07;81.56
74708;BME280;63360;50.104;8.074;2023-03-02T07:22:43;97474.91;;;-1.87;81.54
74708;BME280;63360;50.104;8.074;2023-03-02T07:25:10;97478.78;;;-1.73;81.46
74708;BME280;63360;50.104;8.074;2023-03-02T07:27:37;97476.94;;;-1.54;80.19
74708;BME280;63360;50.104;8.074;2023-03-02T07:30:05;97475.84;;;-1.58;81.14
74708;BME280;63360;50.104;8.074;2023-03-02T07:32:32;97474.31;;;-1.48;80.93
74708;BME280;63360;50.104;8.074;2023-03-02T07:34:58;97465.09;;;-1.37;79.83
74708;BME280;63360;50.104;8.074;2023-03-02T07:37:25;97479.75;;;-1.21;79.37
74708;BME280;63360;50.104;8.074;2023-03-02T07:39:51;97486.31;;;-1.13;79.04
74708;BME280;63360;50.104;8.074;2023-03-02T07:42:17;97469.56;;;-1.09;79.04
74708;BME280;63360;50.104;8.074;2023-03-02T07:44:44;97487.41;;;-0.86;77.75
74708;BME280;63360;50.104;8.074;2023-03-02T07:47:10;97477.06;;;-0.80;78.69
74708;BME280;63360;50.104;8.074;2023-03-02T07:49:37;97472.03;;;-0.63;76.62
74708;BME280;63360;50.104;8.074;2023-03-02T07:52:04;97480.38;;;-0.56;76.34
74708;BME280;63360;50.104;8.074;2023-03-02T07:54:30;97480.88;;;-0.42;75.79
74708;BME280;63360;50.104;8.074;2023-03-02T07:56:57;97477.28;;;-0.30;75.94
74708;BME280;63360;50.104;8.074;2023-03-02T07:59:23;97476.16;;;-0.22;74.86
74708;BME280;63360;50.104;8.074;2023-03-02T08:01:50;97484.63;;;-0.05;74.24
74708;BME280;63360;50.104;8.074;2023-03-02T08:04:17;97487.91;;;0.07;73.33
74708;BME280;63360;50.104;8.074;2023-03-02T08:06:43;97487.63;;;0.20;73.65
74708;BME280;63360;50.104;8.074;2023-03-02T08:09:09;97481.13;;;0.29;73.05
74708;BME280;63360;50.104;8.074;2023-03-02T08:11:36;97477.56;;;0.47;72.84
74708;BME280;63360;50.104;8.074;2023-03-02T08:14:02;97476.94;;;0.56;71.44
74708;BME280;63360;50.104;8.074;2023-03-02T08:16:29;97472.53;;;0.69;71.31
74708;BME280;63360;50.104;8.074;2023-03-02T08:18:56;97466.31;;;0.81;70.85
74708;BME280;63360;50.104;8.074;2023-03-02T08:21:27;97470.81;;;1.12;71.07
74708;BME280;63360;50.104;8.074;2023-03-02T08:23:54;97458.28;;;1.33;68.72
74708;BME280;63360;50.104;8.074;2023-03-02T08:26:21;97467.91;;;1.69;68.29
74708;BME280;63360;50.104;8.074;2023-03-02T08:28:48;97475.59;;;1.91;67.93
74708;BME280;63360;50.104;8.074;2023-03-02T08:31:14;97462.63;;;2.02;67.27
74708;BME280;63360;50.104;8.074;2023-03-02T08:33:41;97469.97;;;2.20;66.72
74708;BME280;63360;50.104;8.074;2023-03-02T08:36:11;97449.63;;;2.14;66.46
74708;BME280;63360;50.104;8.074;2023-03-02T08:38:39;97448.25;;;2.33;66.26
74708;BME280;63360;50.104;8.074;2023-03-02T08:41:08;97463.72;;;2.43;66.32
74708;BME280;63360;50.104;8.074;2023-03-02T08:43:35;97460.06;;;2.66;66.41
74708;BME280;63360;50.104;8.074;2023-03-02T08:46:02;97450.41;;;2.83;65.47
74708;BME280;63360;50.104;8.074;2023-03-02T08:48:29;97457.97;;;3.04;64.01
74708;BME280;63360;50.104;8.074;2023-03-02T08:51:07;97448.78;;;3.14;63.03
74708;BME280;63360;50.104;8.074;2023-03-02T08:53:36;97463.59;;;3.01;62.94
74708;BME280;63360;50.104;8.074;2023-03-02T08:56:03;97451.34;;;3.09;62.99
74708;BME280;63360;50.104;8.074;2023-03-02T08:58:32;97453.66;;;3.15;62.97
74708;BME280;63360;50.104;8.074;2023-03-02T09:00:58;97453.63;;;3.05;63.56
74708;BME280;63360;50.104;8.074;2023-03-02T09:03:25;97458.78;;;3.10;63.96
74708;BME280;63360;50.104;8.074;2023-03-02T09:05:51;97435.16;;;3.13;62.88
74708;BME280;63360;50.104;8.074;2023-03-02T09:08:17;97436.59;;;2.94;63.85
74708;BME280;63360;50.104;8.074;2023-03-02T09:10:44;97449.00;;;3.12;64.22
74708;BME280;63360;50.104;8.074;2023-03-02T09:13:10;97443.38;;;3.15;65.09
74708;BME280;63360;50.104;8.074;2023-03-02T09:15:37;97447.28;;;3.28;63.76
74708;BME280;63360;50.104;8.074;2023-03-02T09:18:03;97421.31;;;3.24;63.77
74708;BME280;63360;50.104;8.074;2023-03-02T09:20:29;97435.31;;;3.48;63.61
74708;BME280;63360;50.104;8.074;2023-03-02T09:22:57;97448.91;;;3.49;63.71
74708;BME280;63360;50.104;8.074;2023-03-02T09:25:23;97430.38;;;3.37;63.00
74708;BME280;63360;50.104;8.074;2023-03-02T09:27:50;97441.97;;;3.44;63.64
74708;BME280;63360;50.104;8.074;2023-03-02T09:30:16;97438.66;;;3.54;63.30
74708;BME280;63360;50.104;8.074;2023-03-02T09:32:43;97443.81;;;3.59;64.56
74708;BME280;63360;50.104;8.074;2023-03-02T09:35:09;97431.97;;;3.58;64.35
74708;BME280;63360;50.104;8.074;2023-03-02T09:37:36;97439.78;;;3.83;63.54
74708;BME280;63360;50.104;8.074;2023-03-02T09:40:12;97447.00;;;3.96;62.75
74708;BME280;63360;50.104;8.074;2023-03-02T09:43:03;97445.22;;;4.07;63.70
74708;BME280;63360;50.104;8.074;2023-03-02T09:51:38;97441.63;;;4.23;62.23
74708;BME280;63360;50.104;8.074;2023-03-02T09:54:14;97444.16;;;4.18;62.03
74708;BME280;63360;50.104;8.074;2023-03-02T09:56:51;97445.22;;;4.27;62.30
74708;BME280;63360;50.104;8.074;2023-03-02T09:59:23;97440.34;;;4.31;63.00
74708;BME280;63360;50.104;8.074;2023-03-02T10:01:55;97445.47;;;4.41;62.48
74708;BME280;63360;50.104;8.074;2023-03-02T10:04:28;97435.19;;;4.41;62.37
74708;BME280;63360;50.104;8.074;2023-03-02T10:07:16;97451.66;;;4.50;62.08
74708;BME280;63360;50.104;8.074;2023-03-02T10:09:43;97434.66;;;4.49;62.79
74708;BME280;63360;50.104;8.074;2023-03-02T10:14:48;97436.19;;;4.70;62.14
74708;BME280;63360;50.104;8.074;2023-03-02T10:20:27;97453.44;;;4.89;62.36
74708;BME280;63360;50.104;8.074;2023-03-02T10:23:25;97430.75;;;4.86;61.71
74708;BME280;63360;50.104;8.074;2023-03-02T10:26:01;97445.38;;;5.11;61.65
74708;BME280;63360;50.104;8.074;2023-03-02T10:28:40;97431.72;;;5.01;61.98
74708;BME280;63360;50.104;8.074;2023-03-02T10:31:25;97430.94;;;5.10;62.01
74708;BME280;63360;50.104;8.074;2023-03-02T10:33:52;97436.31;;;5.24;61.78
74708;BME280;63360;50.104;8.074;2023-03-02T10:36:28;97438.34;;;5.37;61.70
74708;BME280;63360;50.104;8.074;2023-03-02T10:38:56;97430.56;;;5.42;61.13
74708;BME280;63360;50.104;8.074;2023-03-02T10:41:36;97422.78;;;5.52;60.60
74708;BME280;63360;50.104;8.074;2023-03-02T10:44:14;97424.84;;;5.55;60.36
74708;BME280;63360;50.104;8.074;2023-03-02T10:46:45;97431.97;;;5.73;59.80
74708;BME280;63360;50.104;8.074;2023-03-02T10:51:57;97419.84;;;5.74;58.80
74708;BME280;63360;50.104;8.074;2023-03-02T10:54:24;97425.44;;;5.86;59.05
74708;BME280;63360;50.104;8.074;2023-03-02T10:56:54;97420.59;;;5.74;58.87
74708;BME280;63360;50.104;8.074;2023-03-02T11:02:00;97418.09;;;5.64;59.78
74708;BME280;63360;50.104;8.074;2023-03-02T11:04:29;97415.47;;;5.69;59.82
74708;BME280;63360;50.104;8.074;2023-03-02T11:07:09;97418.03;;;5.74;60.14
74708;BME280;63360;50.104;8.074;2023-03-02T11:09:39;97409.03;;;5.67;59.93
74708;BME280;63360;50.104;8.074;2023-03-02T11:12:16;97416.47;;;5.73;58.75
74708;BME280;63360;50.104;8.074;2023-03-02T11:14:43;97399.47;;;5.67;59.24
74708;BME280;63360;50.104;8.074;2023-03-02T11:17:27;97404.56;;;5.82;58.87
74708;BME280;63360;50.104;8.074;2023-03-02T11:19:55;97406.94;;;6.13;59.06
74708;BME280;63360;50.104;8.074;2023-03-02T11:22:33;97415.53;;;6.37;58.31
74708;BME280;63360;50.104;8.074;2023-03-02T11:25:05;97408.75;;;6.46;57.23
74708;BME280;63360;50.104;8.074;2023-03-02T11:27:36;97403.97;;;6.58;59.08
74708;BME280;63360;50.104;8.074;2023-03-02T11:30:14;97390.97;;;6.68;57.31
74708;BME280;63360;50.104;8.074;2023-03-02T11:32:50;97380.59;;;6.73;56.88
74708;BME280;63360;50.104;8.074;2023-03-02T11:35:32;97400.34;;;6.88;56.92
74708;BME280;63360;50.104;8.074;2023-03-02T11:38:16;97393.34;;;6.88;56.19
74708;BME280;63360;50.104;8.074;2023-03-02T11:40:50;97397.03;;;7.06;56.35
74708;BME280;63360;50.104;8.074;2023-03-02T11:43:18;97380.75;;;6.82;56.49
74708;BME280;63360;50.104;8.074;2023-03-02T11:45:47;97392.97;;;7.00;56.28
74708;BME280;63360;50.104;8.074;2023-03-02T11:48:23;97381.38;;;7.16;56.04
74708;BME280;63360;50.104;8.074;2023-03-02T11:50:56;97386.66;;;7.29;56.13
74708;BME280;63360;50.104;8.074;2023-03-02T11:53:29;97370.41;;;7.24;56.03
74708;BME280;63360;50.104;8.074;2023-03-02T11:55:58;97356.16;;;7.26;56.43
74708;BME280;63360;50.104;8.074;2023-03-02T11:58:27;97379.47;;;7.64;55.55
74708;BME280;63360;50.104;8.074;2023-03-02T12:00:54;97349.19;;;7.64;54.50
74708;BME280;63360;50.104;8.074;2023-03-02T12:06:07;97371.84;;;7.91;54.80
74708;BME280;63360;50.104;8.074;2023-03-02T12:09:06;97370.88;;;7.87;54.47
74708;BME280;63360;50.104;8.074;2023-03-02T12:11:37;97351.22;;;7.67;53.90
74708;BME280;63360;50.104;8.074;2023-03-02T12:14:25;97362.56;;;7.71;55.41
74708;BME280;63360;50.104;8.074;2023-03-02T12:17:15;97367.75;;;7.53;55.20
74708;BME280;63360;50.104;8.074;2023-03-02T12:19:43;97364.72;;;7.64;55.01
74708;BME280;63360;50.104;8.074;2023-03-02T12:22:10;97360.47;;;7.73;53.87
74708;BME280;63360;50.104;8.074;2023-03-02T12:24:43;97359.75;;;7.49;54.51
74708;BME280;63360;50.104;8.074;2023-03-02T12:29:44;97358.72;;;7.69;54.60
74708;BME280;63360;50.104;8.074;2023-03-02T12:32:22;97351.16;;;7.54;54.64
74708;BME280;63360;50.104;8.074;2023-03-02T12:37:31;97348.22;;;7.60;54.96
74708;BME280;63360;50.104;8.074;2023-03-02T12:42:48;97343.44;;;7.67;54.88
74708;BME280;63360;50.104;8.074;2023-03-02T12:45:45;97342.19;;;7.65;54.16
74708;BME280;63360;50.104;8.074;2023-03-02T12:48:30;97338.00;;;7.50;55.33
74708;BME280;63360;50.104;8.074;2023-03-02T12:51:03;97338.75;;;7.51;55.48
74708;BME280;63360;50.104;8.074;2023-03-02T12:53:30;97323.75;;;7.34;55.44
74708;BME280;63360;50.104;8.074;2023-03-02T12:55:57;97327.50;;;7.42;55.60
74708;BME280;63360;50.104;8.074;2023-03-02T12:58:25;97321.78;;;7.45;54.80
74708;BME280;63360;50.104;8.074;2023-03-02T13:00:59;97324.28;;;7.50;55.12
74708;BME280;63360;50.104;8.074;2023-03-02T13:03:28;97319.13;;;7.50;55.84
74708;BME280;63360;50.104;8.074;2023-03-02T13:06:13;97320.78;;;7.41;55.42
74708;BME280;63360;50.104;8.074;2023-03-02T13:08:45;97323.38;;;7.59;55.72
74708;BME280;63360;50.104;8.074;2023-03-02T13:11:20;97310.59;;;7.49;54.94
74708;BME280;63360;50.104;8.074;2023-03-02T13:13:47;97301.34;;;7.43;55.75
74708;BME280;63360;50.104;8.074;2023-03-02T13:16:30;97305.06;;;7.56;56.41
74708;BME280;63360;50.104;8.074;2023-03-02T13:19:00;97299.41;;;7.86;55.83
74708;BME280;63360;50.104;8.074;2023-03-02T13:21:32;97304.94;;;8.12;54.43
74708;BME280;63360;50.104;8.074;2023-03-02T13:24:00;97302.63;;;8.10;55.69
74708;BME280;63360;50.104;8.074;2023-03-02T13:26:28;97298.53;;;8.23;54.58
74708;BME280;63360;50.104;8.074;2023-03-02T13:29:13;97306.19;;;8.33;54.76
74708;BME280;63360;50.104;8.074;2023-03-02T13:31:44;97310.50;;;8.37;53.20
74708;BME280;63360;50.104;8.074;2023-03-02T13:34:21;97297.00;;;8.22;54.37
74708;BME280;63360;50.104;8.074;2023-03-02T13:36:48;97293.28;;;8.28;53.92
74708;BME280;63360;50.104;8.074;2023-03-02T13:39:21;97291.72;;;8.13;54.44
74708;BME280;63360;50.104;8.074;2023-03-02T13:41:53;97299.38;;;8.18;54.81
74708;BME280;63360;50.104;8.074;2023-03-02T13:44:25;97286.72;;;8.03;54.90
74708;BME280;63360;50.104;8.074;2023-03-02T13:46:53;97287.28;;;8.00;55.09
74708;BME280;63360;50.104;8.074;2023-03-02T13:49:27;97291.59;;;8.05;53.69
74708;BME280;63360;50.104;8.074;2023-03-02T13:52:06;97281.59;;;7.98;53.37
74708;BME280;63360;50.104;8.074;2023-03-02T13:54:40;97294.63;;;7.93;52.84